Time;durP1;ratioP1;P1;durP2;ratioP2;P2;SDS_P1;SDS_P2;PMS_P1;PMS_P2;Temp;Humidity;BMP_temperature;BMP_pressure;BME280_temperature;BME280_humidity;BME280_pressure;Samples;Min_cycle;Max_cycle;Signal;HPM_P1;HPM_P2
2022/06/17 00:01:48;;;;;;;11.28;8.45;;;;;;;15.11;98.83;99229.44;4324673;80;20959;-85
2022/06/17 00:08:14;;;;;;;10.95;8.50;;;;;;;15.19;98.86;99229.61;4336633;82;21472;-85
2022/06/17 00:28:02;;;;;;;14.78;9.43;;;;;;;15.02;98.72;99216.06;4310987;81;21039;-85
2022/06/17 00:34:03;;;;;;;14.25;9.70;;;;;;;14.98;98.56;99211.74;4317161;81;21029;-86
2022/06/17 00:40:16;;;;;;;13.90;10.38;;;;;;;14.86;98.53;99211.57;4247096;82;21503;-86
2022/06/17 00:46:49;;;;;;;13.35;9.70;;;;;;;14.72;98.38;99214.36;4248440;82;21082;-86
2022/06/17 00:53:43;;;;;;;15.18;10.13;;;;;;;14.68;98.57;99210.05;4299982;81;21001;-87
2022/06/17 01:00:44;;;;;;;13.75;10.85;;;;;;;14.54;98.94;99214.20;4286735;81;21018;-86
2022/06/17 01:07:27;;;;;;;14.43;11.00;;;;;;;14.50;99.02;99211.44;4111040;84;21139;-86
2022/06/17 01:13:29;;;;;;;15.25;9.95;;;;;;;14.54;99.88;99210.06;4131543;84;20990;-85
2022/06/17 01:26:33;;;;;;;14.05;8.65;;;;;;;14.49;99.93;99222.86;4028119;86;21152;-86
2022/06/17 01:32:51;;;;;;;13.10;8.75;;;;;;;14.56;100.00;99231.92;4017396;84;21083;-86
2022/06/17 01:39:26;;;;;;;11.15;7.78;;;;;;;14.58;100.00;99251.58;4171390;83;21057;-85
2022/06/17 01:52:48;;;;;;;12.58;8.80;;;;;;;14.53;100.00;99253.95;4284093;83;21083;-83
2022/06/17 01:59:21;;;;;;;10.40;8.53;;;;;;;14.48;100.00;99264.78;4249938;82;21872;-83
2022/06/17 02:05:53;;;;;;;13.95;8.70;;;;;;;14.48;100.00;99266.16;4268938;82;21042;-83
2022/06/17 02:12:10;;;;;;;14.58;8.78;;;;;;;14.51;100.00;99276.39;4286326;82;21062;-82
2022/06/17 02:18:32;;;;;;;9.40;8.28;;;;;;;14.46;99.93;99283.66;4234026;82;21099;-83
2022/06/17 02:39:00;;;;;;;13.50;10.05;;;;;;;14.19;100.00;99287.35;4312747;82;21044;-83
2022/06/17 02:45:32;;;;;;;16.10;9.78;;;;;;;14.29;100.00;99292.70;4323081;82;22046;-83
2022/06/17 02:51:42;;;;;;;11.33;8.60;;;;;;;14.36;100.00;99291.32;4278372;82;21059;-83
2022/06/17 02:57:47;;;;;;;16.73;9.88;;;;;;;14.26;100.00;99295.45;4317044;80;34053;-83
2022/06/17 03:04:01;;;;;;;18.77;10.55;;;;;;;14.27;100.00;99295.05;4274037;81;21500;-83
2022/06/17 03:16:17;;;;;;;15.43;10.58;;;;;;;14.49;100.00;99319.27;4316094;81;21535;-84
2022/06/17 03:22:46;;;;;;;12.07;9.20;;;;;;;14.56;100.00;99318.70;4320563;80;21629;-84
2022/06/17 03:29:09;;;;;;;13.43;9.45;;;;;;;14.62;100.00;99324.02;4348488;81;21040;-85
2022/06/17 03:35:33;;;;;;;13.72;9.38;;;;;;;14.58;100.00;99327.95;4350476;79;22064;-85
2022/06/17 03:42:03;;;;;;;15.10;10.18;;;;;;;14.64;100.00;99327.17;4340705;81;21035;-85
2022/06/17 03:48:34;;;;;;;16.12;13.10;;;;;;;14.62;100.00;99338.37;4358316;81;21128;-84
2022/06/17 03:54:43;;;;;;;;;;;;;;;14.66;100.00;99339.17;4330093;81;21041;-86
2022/06/17 04:07:38;;;;;;;16.37;11.25;;;;;;;14.82;100.00;99353.32;4343793;81;21525;-84
2022/06/17 04:13:54;;;;;;;13.85;11.55;;;;;;;14.93;100.00;99361.00;4326361;81;21090;-84
2022/06/17 04:20:32;;;;;;;18.92;14.55;;;;;;;14.99;100.00;99367.10;4355335;81;21063;-85
2022/06/17 04:26:59;;;;;;;21.15;14.60;;;;;;;15.10;100.00;99382.25;4288589;82;20977;-84
2022/06/17 04:33:15;;;;;;;29.55;18.20;;;;;;;15.25;100.00;99383.21;4253618;82;20978;-85
2022/06/17 04:46:09;;;;;;;23.45;18.20;;;;;;;15.38;100.00;99402.34;4237966;82;21008;-88
2022/06/17 04:52:26;;;;;;;28.83;21.62;;;;;;;15.39;100.00;99399.77;4247989;82;20964;-87
2022/06/17 04:58:30;;;;;;;39.13;26.80;;;;;;;15.43;100.00;99404.70;4238349;81;22013;-87
2022/06/17 05:04:36;;;;;;;32.33;26.03;;;;;;;15.43;100.00;99401.95;4254377;82;21015;-87
2022/06/17 05:10:43;;;;;;;37.83;28.45;;;;;;;15.43;100.00;99400.56;4257157;82;21034;-86
2022/06/17 05:16:45;;;;;;;36.97;28.63;;;;;;;15.46;100.00;99399.77;4234059;82;22335;-87
2022/06/17 05:22:54;;;;;;;37.03;28.65;;;;;;;15.47;100.00;99408.84;4274719;80;21009;-87
2022/06/17 05:28:56;;;;;;;44.63;30.52;;;;;;;15.49;100.00;99410.01;4272222;82;21072;-86
2022/06/17 05:35:00;;;;;;;44.55;30.68;;;;;;;15.53;100.00;99416.91;4279691;81;21046;-87
2022/06/17 05:41:01;;;;;;;55.23;32.53;;;;;;;15.59;100.00;99427.14;4274740;82;21106;-87
2022/06/17 05:47:06;;;;;;;44.65;32.88;;;;;;;15.68;100.00;99428.09;4274475;81;21041;-86
2022/06/17 05:53:29;;;;;;;42.03;31.00;;;;;;;15.82;100.00;99431.43;4274517;82;21064;-86
2022/06/17 05:59:32;;;;;;;36.70;27.87;;;;;;;16.08;100.00;99430.34;4273988;82;21064;-85
2022/06/17 06:05:34;;;;;;;31.52;24.98;;;;;;;16.23;100.00;99437.37;4260562;82;21518;-86
2022/06/17 06:11:42;;;;;;;31.73;24.27;;;;;;;16.25;100.00;99446.05;4292550;82;21063;-85
2022/06/17 06:17:45;;;;;;;;;;;;;;;16.21;100.00;99456.31;4292627;82;21015;-86
2022/06/17 06:23:47;;;;;;;32.33;25.95;;;;;;;16.30;100.00;99460.80;4288597;82;20106;-85
2022/06/17 06:29:50;;;;;;;29.92;23.12;;;;;;;16.55;100.00;99457.35;4271086;82;21059;-85
2022/06/17 06:35:55;;;;;;;45.25;23.50;;;;;;;16.77;100.00;99459.42;4254766;82;21548;-85
2022/06/17 06:41:56;;;;;;;30.17;22.70;;;;;;;16.87;100.00;99470.40;4275896;82;21056;-85
2022/06/17 06:48:07;;;;;;;30.30;21.00;;;;;;;16.77;100.00;99473.23;4290696;81;21038;-85
2022/06/17 06:54:09;;;;;;;45.03;23.50;;;;;;;16.71;100.00;99481.16;4283223;82;21060;-85
2022/06/17 07:00:25;;;;;;;38.90;25.15;;;;;;;16.61;100.00;99488.14;4275746;82;21057;-85
2022/06/17 07:06:27;;;;;;;34.97;24.47;;;;;;;16.92;100.00;99481.63;4282450;82;21003;-83
2022/06/17 07:12:28;;;;;;;34.40;24.80;;;;;;;16.92;100.00;99481.63;4266925;82;21069;-86
2022/06/17 07:18:36;;;;;;;27.50;24.43;;;;;;;16.90;100.00;99487.56;4284275;82;21408;-84
2022/06/17 07:24:37;;;;;;;31.68;25.17;;;;;;;16.92;100.00;99488.53;4274861;81;21115;-84
2022/06/17 07:30:38;;;;;;;32.80;26.30;;;;;;;16.81;100.00;99492.77;4296522;81;21115;-85
2022/06/17 07:43:14;;;;;;;35.35;26.57;;;;;;;16.58;100.00;99498.03;4272582;82;21014;-85
2022/06/17 07:49:16;;;;;;;35.90;26.17;;;;;;;16.50;100.00;99503.39;4283098;82;21563;-85
2022/06/17 07:55:20;;;;;;;35.43;26.60;;;;;;;16.51;100.00;99505.55;4279657;82;21046;-85
2022/06/17 08:01:25;;;;;;;36.20;25.72;;;;;;;16.55;100.00;99506.33;4274120;82;20967;-86
2022/06/17 08:07:28;;;;;;;41.42;26.95;;;;;;;16.51;100.00;99517.39;4282873;82;21048;-86
2022/06/17 08:13:30;;;;;;;32.15;26.45;;;;;;;16.45;100.00;99515.45;4291139;81;21080;-84
2022/06/17 08:19:34;;;;;;;31.00;25.08;;;;;;;16.46;100.00;99515.05;4291646;82;21096;-85
2022/06/17 08:25:42;;;;;;;30.10;23.92;;;;;;;16.80;100.00;99529.11;4280579;82;21349;-85
2022/06/17 08:31:49;;;;;;;28.27;23.25;;;;;;;17.38;100.00;99524.97;4276775;82;21662;-86
2022/06/17 08:38:01;;;;;;;24.72;20.82;;;;;;;17.70;100.00;99535.19;4282637;82;21051;-84
2022/06/17 08:44:46;;;;;;;22.65;18.62;;;;;;;18.19;100.00;99542.23;4291310;82;21037;-85
2022/06/17 09:05:24;;;;;;;33.05;22.15;;;;;;;18.64;96.95;99546.47;4271722;82;21009;-84
2022/06/17 09:12:13;;;;;;;29.23;22.55;;;;;;;19.06;97.24;99554.22;4289162;82;21077;-87
2022/06/17 09:18:44;;;;;;;25.40;20.88;;;;;;;18.98;95.83;99565.23;4288016;82;21023;-86
2022/06/17 09:25:31;;;;;;;25.00;20.70;;;;;;;19.20;94.57;99569.28;4279566;81;21068;-86
2022/06/17 09:38:59;;;;;;;22.47;19.77;;;;;;;19.90;92.99;99589.64;4258107;82;21064;-86
2022/06/17 09:59:01;;;;;;;19.75;16.82;;;;;;;20.91;88.64;99591.69;4312423;82;20985;-86
2022/06/17 10:06:01;;;;;;;21.15;16.95;;;;;;;20.97;88.04;99591.41;4239333;82;21452;-87
2022/06/17 10:12:17;;;;;;;21.85;16.97;;;;;;;20.85;87.01;99601.76;4245228;82;21049;-86
2022/06/17 10:18:38;;;;;;;17.60;13.67;;;;;;;20.63;86.17;99602.00;4247796;82;21078;-86
2022/06/17 10:25:18;;;;;;;23.90;17.37;;;;;;;20.34;85.56;99599.60;4250568;82;21066;-86
2022/06/17 10:31:46;;;;;;;20.00;17.62;;;;;;;20.74;85.43;99595.02;4268048;81;20977;-87
2022/06/17 10:37:49;;;;;;;24.07;17.17;;;;;;;21.34;83.93;99596.55;4292856;81;21100;-87
2022/06/17 10:43:52;;;;;;;22.02;17.67;;;;;;;21.05;83.71;99603.34;4293266;82;21068;-86
2022/06/17 10:50:05;;;;;;;25.40;19.25;;;;;;;20.66;82.70;99609.50;4296850;82;21088;-87
2022/06/17 11:03:48;;;;;;;31.73;20.60;;;;;;;19.66;82.68;99609.67;4183428;82;21509;-87
2022/06/17 11:10:26;;;;;;;25.27;17.42;;;;;;;19.54;83.42;99595.59;4292823;81;21495;-86
2022/06/17 11:23:57;;;;;;;23.10;16.15;;;;;;;19.96;82.84;99597.08;4278385;82;21017;-86
2022/06/17 11:30:21;;;;;;;20.68;14.90;;;;;;;21.04;82.19;99587.86;4235881;82;21083;-86
2022/06/17 11:36:45;;;;;;;15.78;11.68;;;;;;;22.34;81.03;99581.91;4240718;82;20972;-87
2022/06/17 11:43:02;;;;;;;14.25;9.00;;;;;;;23.27;80.11;99574.67;4217721;82;21061;-87
2022/06/17 11:49:17;;;;;;;9.80;6.05;;;;;;;22.96;78.05;99581.34;4246773;82;21058;-85
2022/06/17 11:55:29;;;;;;;6.70;5.60;;;;;;;22.75;76.38;99579.19;4271326;81;21532;-87
2022/06/17 12:01:30;;;;;;;8.50;4.78;;;;;;;22.71;76.31;99575.70;4259171;82;21080;-86
2022/06/17 12:08:23;;;;;;;5.05;4.12;;;;;;;22.59;75.15;99582.64;4258748;82;21013;-86
2022/06/17 12:15:01;;;;;;;9.15;5.05;;;;;;;22.42;73.87;99588.07;4218090;82;21945;-85
2022/06/17 12:21:36;;;;;;;8.03;5.40;;;;;;;22.41;73.40;99583.73;4253754;82;21147;-85
2022/06/17 12:28:32;;;;;;;8.10;4.00;;;;;;;21.93;72.18;99590.76;4149184;84;21005;-85
2022/06/17 12:35:06;;;;;;;5.92;2.85;;;;;;;21.63;71.92;99575.95;4258113;82;21375;-86
2022/06/17 12:41:47;;;;;;;6.53;2.98;;;;;;;21.80;70.18;99563.44;4246931;81;21063;-86
2022/06/17 12:48:25;;;;;;;4.95;2.80;;;;;;;21.90;69.18;99571.52;4119810;82;21082;-86
2022/06/17 12:55:06;;;;;;;3.72;2.65;;;;;;;22.22;66.12;99570.09;4178603;82;21758;-88
2022/06/17 13:01:18;;;;;;;4.67;2.60;;;;;;;21.84;64.36;99576.66;4250215;81;21891;-87
2022/06/17 13:08:08;;;;;;;3.92;1.95;;;;;;;21.34;64.10;99581.23;4248076;82;21107;-87
2022/06/17 13:15:25;;;;;;;3.90;2.33;;;;;;;21.24;63.01;99582.24;4140562;84;21091;-86
2022/06/17 13:21:37;;;;;;;4.12;1.65;;;;;;;21.05;64.00;99576.90;4136846;85;21090;-85
2022/06/17 13:28:39;;;;;;;2.77;1.55;;;;;;;20.87;63.63;99568.73;4090968;85;21267;-86
2022/06/17 13:41:54;;;;;;;1.80;1.10;;;;;;;21.62;61.56;99568.81;4147354;83;22298;-86
2022/06/17 13:48:39;;;;;;;3.80;0.90;;;;;;;21.41;61.71;99583.23;4237975;83;21029;-85
2022/06/17 13:55:08;;;;;;;2.95;1.45;;;;;;;21.40;60.55;99582.28;4261270;83;21080;-86
2022/06/17 14:01:35;;;;;;;3.80;1.30;;;;;;;21.18;59.85;99579.80;4243931;82;21093;-87
2022/06/17 14:08:14;;;;;;;2.22;0.95;;;;;;;21.28;59.00;99579.55;4251816;82;21682;-86
2022/06/17 14:14:38;;;;;;;1.15;0.60;;;;;;;21.45;58.33;99580.38;4244171;82;21001;-86
2022/06/17 14:20:56;;;;;;;1.10;0.60;;;;;;;21.74;57.81;99577.06;4247014;82;21181;-86
2022/06/17 14:27:01;;;;;;;2.77;1.00;;;;;;;21.87;55.91;99581.36;4210990;83;21007;-86
2022/06/17 14:33:03;;;;;;;1.80;0.82;;;;;;;21.50;54.66;99592.40;4212661;83;21097;-87
2022/06/17 14:39:29;;;;;;;2.37;0.90;;;;;;;21.21;53.99;99590.07;4179088;82;21041;-87
2022/06/17 14:46:01;;;;;;;3.72;1.30;;;;;;;20.93;55.50;99590.06;3752127;91;21018;-86
2022/06/17 14:52:23;;;;;;;1.55;0.85;;;;;;;20.77;55.01;99586.42;3912231;87;38085;-86
2022/06/17 14:58:57;;;;;;;2.95;1.00;;;;;;;20.87;55.93;99577.08;4106669;84;21042;-86
2022/06/17 15:04:59;;;;;;;2.80;1.00;;;;;;;21.37;55.38;99571.41;4124418;83;21072;-86
2022/06/17 15:11:26;;;;;;;1.98;1.02;;;;;;;21.46;54.72;99581.93;4116175;84;21023;-86
2022/06/17 15:17:37;;;;;;;1.40;0.90;;;;;;;21.18;54.83;99583.38;4057069;84;21018;-86
2022/06/17 15:23:56;;;;;;;4.15;1.80;;;;;;;20.88;55.36;99579.42;4098894;84;21464;-86
2022/06/17 15:30:18;;;;;;;4.72;1.00;;;;;;;20.83;55.51;99580.55;4125162;84;21082;-86
2022/06/17 15:36:31;;;;;;;3.42;1.30;;;;;;;20.89;55.32;99582.37;4102025;85;21146;-86
2022/06/17 15:42:32;;;;;;;2.85;1.30;;;;;;;20.93;55.18;99576.14;4112181;85;21086;-86
2022/06/17 15:48:33;;;;;;;2.33;1.02;;;;;;;20.88;55.88;99572.47;4119443;85;21038;-87
2022/06/17 16:01:21;;;;;;;6.40;1.20;;;;;;;21.03;56.04;99563.25;4120244;85;21038;-85
2022/06/17 16:07:30;;;;;;;1.87;1.12;;;;;;;21.22;55.95;99574.95;4092913;85;25830;-86
2022/06/17 16:13:37;;;;;;;3.08;1.00;;;;;;;21.31;55.95;99568.17;4088670;86;21092;-86
2022/06/17 16:19:56;;;;;;;6.15;2.35;;;;;;;21.27;55.51;99576.60;4069964;86;21116;-86
2022/06/17 16:26:01;;;;;;;2.27;1.40;;;;;;;21.02;55.50;99577.77;4180951;83;21100;-85
2022/06/17 16:32:08;;;;;;;9.00;2.17;;;;;;;20.84;55.50;99575.95;4155718;83;21497;-86
2022/06/17 16:38:38;;;;;;;3.60;1.50;;;;;;;20.81;55.66;99580.98;4140946;84;21010;-85
2022/06/17 16:44:39;;;;;;;7.78;1.92;;;;;;;20.73;55.71;99580.95;4146441;84;20978;-86
2022/06/17 16:50:41;;;;;;;3.95;1.92;;;;;;;20.63;55.92;99590.28;4148570;84;21475;-86
2022/06/17 16:56:50;;;;;;;3.05;1.60;;;;;;;20.63;56.20;99584.72;4149239;83;22397;-85
2022/06/17 17:02:53;;;;;;;2.98;1.40;;;;;;;20.59;56.49;99584.02;4147311;84;21522;-86
2022/06/17 17:08:54;;;;;;;1.90;1.42;;;;;;;20.49;56.55;99589.77;4029271;84;10000199;-85
2022/06/17 17:15:04;;;;;;;4.28;1.37;;;;;;;20.32;57.01;99590.30;4135508;84;21486;-84
2022/06/17 17:21:08;;;;;;;2.55;1.20;;;;;;;20.28;56.87;99588.80;4145073;83;21122;-85
2022/06/17 17:27:18;;;;;;;4.05;1.30;;;;;;;20.33;56.61;99598.80;4092753;84;21006;-85
2022/06/17 17:40:53;;;;;;;5.77;1.67;;;;;;;20.27;57.91;99601.91;4190353;85;21526;-86
2022/06/17 17:46:54;;;;;;;3.40;1.27;;;;;;;20.27;57.91;99601.91;4159071;83;21479;-86
2022/06/17 17:53:26;;;;;;;4.08;1.60;;;;;;;20.17;57.86;99603.66;4135501;84;20978;-86
2022/06/17 17:59:46;;;;;;;4.37;1.20;;;;;;;20.01;57.84;99602.75;4181884;83;20956;-86
2022/06/17 18:06:16;;;;;;;3.65;1.40;;;;;;;19.88;58.41;99608.72;4142597;83;20991;-85
2022/06/17 18:12:20;;;;;;;2.45;1.57;;;;;;;19.70;58.58;99609.00;4221673;84;21018;-85
2022/06/17 18:18:41;;;;;;;2.62;1.32;;;;;;;19.56;58.94;99613.39;4167883;83;22068;-86
2022/06/17 18:24:56;;;;;;;7.72;1.90;;;;;;;19.26;59.22;99607.88;4140821;83;21090;-85
2022/06/17 18:30:57;;;;;;;4.33;1.87;;;;;;;19.15;59.55;99613.37;4225756;82;21039;-86
2022/06/17 18:43:29;;;;;;;3.30;2.17;;;;;;;18.90;60.35;99622.63;4252519;83;21130;-86
2022/06/17 18:49:55;;;;;;;4.40;2.40;;;;;;;18.69;60.98;99623.08;4232255;83;21059;-85
2022/06/17 18:56:14;;;;;;;8.90;2.17;;;;;;;18.41;61.42;99622.00;4131468;84;21012;-85
2022/06/17 19:02:32;;;;;;;3.67;2.15;;;;;;;18.16;62.28;99640.03;4133292;84;20971;-85
2022/06/17 19:22:38;;;;;;;7.40;4.00;;;;;;;17.31;64.30;99656.45;4170314;84;21008;-84
2022/06/17 19:28:42;;;;;;;7.50;3.50;;;;;;;17.03;65.00;99660.73;4092050;85;20999;-85
2022/06/17 19:34:51;;;;;;;8.85;4.25;;;;;;;16.82;65.58;99676.02;4136114;84;21034;-85
2022/06/17 19:47:43;;;;;;;6.90;4.07;;;;;;;16.72;67.60;99687.33;4175767;84;21014;-85
2022/06/17 20:01:15;;;;;;;10.78;4.67;;;;;;;16.43;68.81;99698.77;3890730;89;21197;-85
2022/06/17 20:07:25;;;;;;;12.75;5.47;;;;;;;16.21;69.81;99700.00;3950824;88;21188;-85
2022/06/17 20:13:27;;;;;;;9.10;4.40;;;;;;;15.98;70.80;99705.11;3938958;89;21641;-86
2022/06/17 20:19:38;;;;;;;11.65;5.00;;;;;;;15.80;71.61;99708.45;4031779;87;21007;-85
2022/06/17 20:32:35;;;;;;;12.82;4.50;;;;;;;15.47;72.47;99712.33;4169591;83;21025;-84
2022/06/17 20:38:36;;;;;;;13.95;4.97;;;;;;;15.23;73.04;99715.17;4141472;84;21050;-84
2022/06/17 20:51:25;;;;;;;9.25;4.42;;;;;;;14.86;74.16;99716.58;4161717;84;21611;-85
2022/06/17 21:04:10;;;;;;;10.58;5.92;;;;;;;14.83;75.63;99715.37;4066799;86;21051;-84
2022/06/17 21:10:28;;;;;;;11.70;5.10;;;;;;;14.59;75.86;99716.61;4068508;86;21142;-84
2022/06/17 21:16:34;;;;;;;11.22;5.20;;;;;;;14.48;76.42;99716.55;4131538;84;21346;-83
2022/06/17 21:22:40;;;;;;;12.68;5.97;;;;;;;14.37;77.12;99717.63;4144744;83;21030;-84
2022/06/17 21:28:42;;;;;;;9.75;4.90;;;;;;;14.31;77.87;99713.66;4154696;84;21973;-84
2022/06/17 21:34:46;;;;;;;10.63;5.47;;;;;;;14.17;78.00;99718.45;4149984;83;21022;-84
2022/06/17 21:40:52;;;;;;;11.20;6.45;;;;;;;14.03;78.21;99711.45;4086807;85;21027;-84
2022/06/17 21:46:56;;;;;;;13.32;6.90;;;;;;;13.84;78.54;99710.29;4162526;85;20926;-84
2022/06/17 21:53:34;;;;;;;21.75;6.53;;;;;;;13.75;79.29;99716.09;4070400;85;20986;-85
2022/06/17 21:59:46;;;;;;;11.57;6.08;;;;;;;13.73;79.90;99712.14;4146032;85;21090;-85
2022/06/17 22:06:06;;;;;;;11.68;6.05;;;;;;;13.71;80.38;99715.28;4069006;85;21049;-84
2022/06/17 22:12:19;;;;;;;14.13;5.78;;;;;;;13.63;80.57;99719.70;4049155;85;21061;-85
2022/06/17 22:18:23;;;;;;;10.98;5.67;;;;;;;13.48;80.95;99728.98;4095905;85;21575;-85
2022/06/17 22:24:35;;;;;;;14.10;5.87;;;;;;;13.47;81.79;99729.55;4020290;86;21044;-84
2022/06/17 22:30:42;;;;;;;11.43;6.08;;;;;;;13.45;81.89;99728.36;4065750;84;21046;-84
2022/06/17 22:36:53;;;;;;;11.68;6.40;;;;;;;13.33;81.46;99725.84;4076775;83;21579;-84
2022/06/17 22:43:13;;;;;;;14.05;7.50;;;;;;;13.41;82.82;99732.44;4151410;84;20994;-85
2022/06/17 22:49:22;;;;;;;16.95;8.13;;;;;;;13.50;82.58;99730.78;4140535;84;21122;-84
2022/06/17 22:55:29;;;;;;;10.28;6.95;;;;;;;13.41;83.26;99731.63;4133895;84;21033;-84
2022/06/17 23:01:42;;;;;;;19.20;8.20;;;;;;;13.46;83.98;99723.05;4161528;84;21101;-84
2022/06/17 23:07:45;;;;;;;16.12;8.50;;;;;;;13.61;84.23;99725.58;4054778;86;22046;-84
2022/06/17 23:13:47;;;;;;;14.90;8.30;;;;;;;13.54;83.84;99728.84;4061272;86;21094;-84
2022/06/17 23:20:05;;;;;;;13.22;7.17;;;;;;;13.54;84.62;99736.52;4079126;86;21297;-84
2022/06/17 23:26:10;;;;;;;13.55;7.35;;;;;;;13.66;84.90;99740.95;4137726;84;22018;-83
2022/06/17 23:32:36;;;;;;;12.35;7.92;;;;;;;13.65;85.04;99736.05;4162536;83;21514;-85
2022/06/17 23:39:01;;;;;;;14.55;7.20;;;;;;;13.52;85.25;99732.55;4232912;83;21606;-84
2022/06/17 23:45:16;;;;;;;14.83;7.22;;;;;;;13.62;85.88;99725.80;4217323;82;21046;-85
2022/06/17 23:51:36;;;;;;;10.25;6.87;;;;;;;13.75;86.12;99725.72;4212040;83;21541;-84
2022/06/17 23:57:43;;;;;;;12.47;7.90;;;;;;;13.88;86.14;99725.66;4236044;83;21047;-84
